Navarino, Wisconsin
Current Conditions -  °F | °C
As of 10:55 AM on Saturday 25 Oct 2014 (Local Time) from KEZS Reporting Station
Clear Clear  
Wind Chill: 16°   Ceiling: Unl
Heat Index: 16°   Visibility: 10mi
Dew Point:   Wind: 17mph
Humidity: 39%   Direction: 310°NW
Pressure: 29.84"   Gusts: 28mph
Location:  44.7353°N, 88.4379°W
Report Text: KEZS 251555Z AUTO 31015G24KT 270V330 10SM CLR 16/02 A2984 RMK AO2 T01560015
Loading
Personal Weather Stations






























Interactive Weather Map
Tropical Storm Tracking
New forecast layout! Learn more

10-Day Weather Forecast

Advertisements
Track Severe Weather on mobile